sensor_id;sensor_type;location;lat;lon;timestamp;pressure;altitude;pressure_sealevel;temperature;humidity
54918;BME280;40818;50.562;7.454;2023-09-19T00:01:02;97142.78;;;14.80;100.00
54918;BME280;40818;50.562;7.454;2023-09-19T00:11:06;97151.88;;;14.56;100.00
54918;BME280;40818;50.562;7.454;2023-09-19T00:21:14;97169.47;;;14.34;100.00
54918;BME280;40818;50.562;7.454;2023-09-19T00:31:17;97177.03;;;14.18;100.00
54918;BME280;40818;50.562;7.454;2023-09-19T00:41:28;97176.06;;;14.09;100.00
54918;BME280;40818;50.562;7.454;2023-09-19T00:51:32;97177.69;;;13.91;100.00
54918;BME280;40818;50.562;7.454;2023-09-19T01:01:43;97182.19;;;13.79;100.00
54918;BME280;40818;50.562;7.454;2023-09-19T01:11:51;97196.72;;;13.72;100.00
54918;BME280;40818;50.562;7.454;2023-09-19T01:22:05;97197.28;;;13.65;100.00
54918;BME280;40818;50.562;7.454;2023-09-19T01:32:17;97206.56;;;13.58;100.00
54918;BME280;40818;50.562;7.454;2023-09-19T01:42:29;97220.84;;;13.54;100.00
54918;BME280;40818;50.562;7.454;2023-09-19T01:52:47;97223.59;;;13.62;100.00
54918;BME280;40818;50.562;7.454;2023-09-19T02:02:51;97237.94;;;13.68;100.00
54918;BME280;40818;50.562;7.454;2023-09-19T02:13:00;97241.84;;;13.62;100.00
54918;BME280;40818;50.562;7.454;2023-09-19T02:23:05;97259.59;;;13.38;100.00
54918;BME280;40818;50.562;7.454;2023-09-19T02:33:11;97279.03;;;13.34;100.00
54918;BME280;40818;50.562;7.454;2023-09-19T02:43:15;97276.69;;;13.30;100.00
54918;BME280;40818;50.562;7.454;2023-09-19T02:53:22;97283.66;;;13.30;100.00
54918;BME280;40818;50.562;7.454;2023-09-19T03:03:26;97284.06;;;13.25;100.00
54918;BME280;40818;50.562;7.454;2023-09-19T03:13:33;97287.16;;;13.19;100.00
54918;BME280;40818;50.562;7.454;2023-09-19T03:23:37;97288.00;;;13.20;100.00
54918;BME280;40818;50.562;7.454;2023-09-19T03:33:44;97283.88;;;13.17;100.00
54918;BME280;40818;50.562;7.454;2023-09-19T03:43:47;97303.59;;;13.10;100.00
54918;BME280;40818;50.562;7.454;2023-09-19T03:53:54;97301.72;;;13.01;100.00
54918;BME280;40818;50.562;7.454;2023-09-19T04:03:57;97294.28;;;12.96;100.00
54918;BME280;40818;50.562;7.454;2023-09-19T04:14:12;97310.41;;;12.90;100.00
54918;BME280;40818;50.562;7.454;2023-09-19T04:24:15;97308.44;;;12.82;100.00
54918;BME280;40818;50.562;7.454;2023-09-19T04:34:22;97312.25;;;12.78;100.00
54918;BME280;40818;50.562;7.454;2023-09-19T04:44:25;97309.91;;;12.75;100.00
54918;BME280;40818;50.562;7.454;2023-09-19T04:54:31;97312.59;;;12.73;100.00
54918;BME280;40818;50.562;7.454;2023-09-19T05:04:35;97318.06;;;12.70;100.00
54918;BME280;40818;50.562;7.454;2023-09-19T05:14:41;97324.13;;;12.71;100.00
54918;BME280;40818;50.562;7.454;2023-09-19T05:24:45;97325.06;;;12.70;100.00
54918;BME280;40818;50.562;7.454;2023-09-19T05:34:51;97327.19;;;12.64;100.00
54918;BME280;40818;50.562;7.454;2023-09-19T05:44:56;97341.53;;;12.59;100.00
54918;BME280;40818;50.562;7.454;2023-09-19T05:55:04;97350.91;;;12.61;100.00
54918;BME280;40818;50.562;7.454;2023-09-19T06:05:08;97376.44;;;12.68;100.00
54918;BME280;40818;50.562;7.454;2023-09-19T06:15:16;97391.59;;;12.74;100.00
54918;BME280;40818;50.562;7.454;2023-09-19T06:25:20;97406.47;;;12.83;100.00
54918;BME280;40818;50.562;7.454;2023-09-19T06:35:27;97422.19;;;12.93;100.00
54918;BME280;40818;50.562;7.454;2023-09-19T06:45:33;97443.72;;;13.06;100.00
54918;BME280;40818;50.562;7.454;2023-09-19T06:55:39;97450.22;;;13.12;100.00
54918;BME280;40818;50.562;7.454;2023-09-19T07:05:44;97461.44;;;13.24;100.00
54918;BME280;40818;50.562;7.454;2023-09-19T07:15:52;97469.72;;;13.40;100.00
54918;BME280;40818;50.562;7.454;2023-09-19T07:25:57;97474.94;;;13.61;100.00
54918;BME280;40818;50.562;7.454;2023-09-19T07:36:03;97473.16;;;13.83;100.00
54918;BME280;40818;50.562;7.454;2023-09-19T07:46:07;97478.13;;;13.86;100.00
54918;BME280;40818;50.562;7.454;2023-09-19T07:56:14;97474.31;;;14.11;100.00
54918;BME280;40818;50.562;7.454;2023-09-19T08:06:20;97488.56;;;14.28;100.00
54918;BME280;40818;50.562;7.454;2023-09-19T08:16:26;97483.41;;;14.48;100.00
54918;BME280;40818;50.562;7.454;2023-09-19T08:26:30;97494.59;;;14.81;100.00
54918;BME280;40818;50.562;7.454;2023-09-19T08:36:36;97497.00;;;15.13;100.00
54918;BME280;40818;50.562;7.454;2023-09-19T08:46:42;97506.91;;;15.29;94.25
54918;BME280;40818;50.562;7.454;2023-09-19T08:56:49;97510.91;;;15.53;94.70
54918;BME280;40818;50.562;7.454;2023-09-19T09:06:54;97512.06;;;15.70;88.20
54918;BME280;40818;50.562;7.454;2023-09-19T09:17:01;97506.13;;;15.97;88.68
54918;BME280;40818;50.562;7.454;2023-09-19T09:27:05;97506.22;;;16.15;81.32
54918;BME280;40818;50.562;7.454;2023-09-19T09:37:16;97519.88;;;16.19;80.29
54918;BME280;40818;50.562;7.454;2023-09-19T09:47:41;97513.03;;;16.46;79.73
54918;BME280;40818;50.562;7.454;2023-09-19T09:58:16;97500.06;;;16.54;78.97
54918;BME280;40818;50.562;7.454;2023-09-19T10:08:24;97501.50;;;17.04;80.08
54918;BME280;40818;50.562;7.454;2023-09-19T10:18:36;97496.75;;;17.35;76.52
54918;BME280;40818;50.562;7.454;2023-09-19T10:28:40;97485.88;;;17.66;72.33
54918;BME280;40818;50.562;7.454;2023-09-19T10:38:47;97488.09;;;18.15;74.10
54918;BME280;40818;50.562;7.454;2023-09-19T10:48:58;97479.03;;;18.10;72.23
54918;BME280;40818;50.562;7.454;2023-09-19T10:59:09;97487.63;;;18.20;70.19
54918;BME280;40818;50.562;7.454;2023-09-19T11:09:14;97481.56;;;18.54;71.56
54918;BME280;40818;50.562;7.454;2023-09-19T11:30:28;97484.09;;;19.06;67.32
54918;BME280;40818;50.562;7.454;2023-09-19T11:40:35;97472.25;;;19.10;62.00
54918;BME280;40818;50.562;7.454;2023-09-19T11:50:40;97463.59;;;19.76;63.96
54918;BME280;40818;50.562;7.454;2023-09-19T12:00:54;97465.44;;;19.92;54.78
54918;BME280;40818;50.562;7.454;2023-09-19T12:10:59;97474.88;;;20.51;54.10
54918;BME280;40818;50.562;7.454;2023-09-19T12:21:05;97474.19;;;21.28;56.03
54918;BME280;40818;50.562;7.454;2023-09-19T12:31:12;97473.38;;;21.97;52.76
54918;BME280;40818;50.562;7.454;2023-09-19T12:41:21;97458.88;;;22.76;51.29
54918;BME280;40818;50.562;7.454;2023-09-19T12:51:34;97455.50;;;23.18;48.50
54918;BME280;40818;50.562;7.454;2023-09-19T13:01:41;97445.53;;;23.42;45.65
54918;BME280;40818;50.562;7.454;2023-09-19T13:11:48;97440.13;;;24.29;44.75
54918;BME280;40818;50.562;7.454;2023-09-19T13:21:56;97429.25;;;24.59;44.89
54918;BME280;40818;50.562;7.454;2023-09-19T13:32:01;97427.38;;;24.17;44.05
54918;BME280;40818;50.562;7.454;2023-09-19T13:42:08;97428.66;;;23.22;44.29
54918;BME280;40818;50.562;7.454;2023-09-19T13:52:12;97419.56;;;22.13;45.47
54918;BME280;40818;50.562;7.454;2023-09-19T14:02:18;97419.91;;;21.34;47.34
54918;BME280;40818;50.562;7.454;2023-09-19T14:12:23;97409.91;;;20.58;49.00
54918;BME280;40818;50.562;7.454;2023-09-19T14:22:31;97401.22;;;20.01;52.35
54918;BME280;40818;50.562;7.454;2023-09-19T14:32:34;97406.50;;;19.76;52.01
54918;BME280;40818;50.562;7.454;2023-09-19T14:42:41;97406.00;;;19.40;51.49
54918;BME280;40818;50.562;7.454;2023-09-19T14:52:44;97408.81;;;19.38;51.96
54918;BME280;40818;50.562;7.454;2023-09-19T15:02:50;97414.41;;;19.19;52.64
54918;BME280;40818;50.562;7.454;2023-09-19T15:12:55;97408.28;;;19.02;53.02
54918;BME280;40818;50.562;7.454;2023-09-19T15:23:01;97400.81;;;18.81;52.51
54918;BME280;40818;50.562;7.454;2023-09-19T15:33:05;97403.28;;;18.82;53.11
54918;BME280;40818;50.562;7.454;2023-09-19T15:43:11;97400.44;;;18.67;53.84
54918;BME280;40818;50.562;7.454;2023-09-19T15:53:15;97395.06;;;18.34;53.98
54918;BME280;40818;50.562;7.454;2023-09-19T16:03:21;97386.53;;;17.80;55.88
54918;BME280;40818;50.562;7.454;2023-09-19T16:13:27;97391.91;;;17.70;57.95
54918;BME280;40818;50.562;7.454;2023-09-19T16:23:33;97395.91;;;17.56;59.09
54918;BME280;40818;50.562;7.454;2023-09-19T16:33:38;97396.75;;;17.38;59.79
54918;BME280;40818;50.562;7.454;2023-09-19T16:43:45;97400.94;;;17.31;60.80
54918;BME280;40818;50.562;7.454;2023-09-19T16:53:49;97386.78;;;17.24;62.01
54918;BME280;40818;50.562;7.454;2023-09-19T17:03:57;97385.09;;;17.15;62.92
54918;BME280;40818;50.562;7.454;2023-09-19T17:14:01;97394.72;;;16.96;64.13
54918;BME280;40818;50.562;7.454;2023-09-19T17:24:07;97403.16;;;16.72;65.05
54918;BME280;40818;50.562;7.454;2023-09-19T17:34:11;97408.75;;;16.59;66.06
54918;BME280;40818;50.562;7.454;2023-09-19T17:44:18;97402.63;;;16.41;67.74
54918;BME280;40818;50.562;7.454;2023-09-19T17:54:21;97406.94;;;16.32;68.66
54918;BME280;40818;50.562;7.454;2023-09-19T18:04:28;97414.16;;;16.20;69.27
54918;BME280;40818;50.562;7.454;2023-09-19T18:14:32;97414.47;;;16.07;70.02
54918;BME280;40818;50.562;7.454;2023-09-19T18:24:38;97417.25;;;15.96;71.61
54918;BME280;40818;50.562;7.454;2023-09-19T18:34:42;97420.59;;;15.88;72.48
54918;BME280;40818;50.562;7.454;2023-09-19T18:44:48;97423.34;;;15.86;72.97
54918;BME280;40818;50.562;7.454;2023-09-19T18:54:52;97434.78;;;15.85;73.42
54918;BME280;40818;50.562;7.454;2023-09-19T19:04:59;97442.22;;;15.80;74.04
54918;BME280;40818;50.562;7.454;2023-09-19T19:15:03;97444.53;;;15.74;75.50
54918;BME280;40818;50.562;7.454;2023-09-19T19:25:09;97441.66;;;15.67;76.94
54918;BME280;40818;50.562;7.454;2023-09-19T19:35:13;97453.78;;;15.68;77.93
54918;BME280;40818;50.562;7.454;2023-09-19T19:45:20;97448.69;;;15.66;79.01
54918;BME280;40818;50.562;7.454;2023-09-19T19:55:24;97433.94;;;15.65;80.19
54918;BME280;40818;50.562;7.454;2023-09-19T20:05:30;97434.50;;;15.69;80.87
54918;BME280;40818;50.562;7.454;2023-09-19T20:15:34;97434.50;;;15.69;80.91
54918;BME280;40818;50.562;7.454;2023-09-19T20:25:40;97427.09;;;15.64;81.90
54918;BME280;40818;50.562;7.454;2023-09-19T20:35:45;97424.72;;;15.61;82.36
54918;BME280;40818;50.562;7.454;2023-09-19T20:45:51;97437.13;;;15.59;83.16
54918;BME280;40818;50.562;7.454;2023-09-19T20:55:59;97433.00;;;15.57;83.86
54918;BME280;40818;50.562;7.454;2023-09-19T21:06:06;97431.75;;;15.61;84.19
54918;BME280;40818;50.562;7.454;2023-09-19T21:16:12;97425.72;;;15.60;84.73
54918;BME280;40818;50.562;7.454;2023-09-19T21:26:18;97428.19;;;15.62;84.21
54918;BME280;40818;50.562;7.454;2023-09-19T21:36:22;97433.69;;;15.68;84.29
54918;BME280;40818;50.562;7.454;2023-09-19T21:46:32;97425.56;;;15.72;84.29
54918;BME280;40818;50.562;7.454;2023-09-19T21:56:36;97431.16;;;15.77;84.02
54918;BME280;40818;50.562;7.454;2023-09-19T22:06:43;97438.78;;;15.80;84.58
54918;BME280;40818;50.562;7.454;2023-09-19T22:16:47;97413.56;;;15.79;85.62
54918;BME280;40818;50.562;7.454;2023-09-19T22:26:54;97399.38;;;15.72;87.49
54918;BME280;40818;50.562;7.454;2023-09-19T22:36:58;97403.13;;;15.59;88.29
54918;BME280;40818;50.562;7.454;2023-09-19T22:47:05;97402.16;;;15.31;90.68
54918;BME280;40818;50.562;7.454;2023-09-19T22:57:09;97408.53;;;15.18;91.10
54918;BME280;40818;50.562;7.454;2023-09-19T23:07:15;97412.34;;;14.95;92.80
54918;BME280;40818;50.562;7.454;2023-09-19T23:17:20;97408.06;;;14.84;94.22
54918;BME280;40818;50.562;7.454;2023-09-19T23:27:27;97396.91;;;14.82;94.73
54918;BME280;40818;50.562;7.454;2023-09-19T23:37:34;97411.47;;;14.65;98.05
54918;BME280;40818;50.562;7.454;2023-09-19T23:47:40;97396.88;;;14.62;97.48
54918;BME280;40818;50.562;7.454;2023-09-19T23:57:43;97404.28;;;14.57;98.29
